createdAt,value
2022-08-19T00:05:04.459Z,17.8
2022-08-19T00:15:05.121Z,17.6
2022-08-19T00:25:05.943Z,17.5
2022-08-19T00:35:06.141Z,17.5
2022-08-19T00:55:06.991Z,17.3
2022-08-19T01:15:08.218Z,17.1
2022-08-19T01:35:08.671Z,16.9
2022-08-19T01:55:09.627Z,16.7
2022-08-19T02:05:10.641Z,16.7
2022-08-19T02:15:11.605Z,16.6
2022-08-19T02:25:12.227Z,16.5
2022-08-19T02:35:13.060Z,16.5
2022-08-19T02:45:13.679Z,16.4
2022-08-19T02:55:13.875Z,16.3
2022-08-19T03:15:15.291Z,16.3
2022-08-19T03:35:16.749Z,16.3
2022-08-19T03:45:17.312Z,16.4
2022-08-19T04:25:18.351Z,16.3
2022-08-19T04:35:20.185Z,16.3
2022-08-19T04:45:19.293Z,16.5
2022-08-19T04:55:19.618Z,16.7
2022-08-19T05:05:20.166Z,16.9
2022-08-19T05:15:20.492Z,17
2022-08-19T05:35:21.678Z,17.5
2022-08-19T05:45:22.168Z,17.8
2022-08-19T06:15:23.636Z,18.5
2022-08-19T06:35:25.188Z,19.2
2022-08-19T06:45:34.718Z,19.4
2022-08-19T06:55:26.141Z,19.8
2022-08-19T07:05:26.382Z,20.1
2022-08-19T07:15:27.394Z,20.5
2022-08-19T07:25:32.003Z,20.8
2022-08-19T07:35:28.505Z,21.1
2022-08-19T07:45:29.146Z,21.1
2022-08-19T07:55:39.986Z,21.4
2022-08-19T08:05:30.027Z,21.6
2022-08-19T08:15:30.123Z,21.9
2022-08-19T08:35:31.836Z,22.3
2022-08-19T08:55:36.529Z,22.9
2022-08-19T09:15:36.784Z,23.1
2022-08-19T09:45:35.333Z,23.5
2022-08-19T09:55:36.325Z,23.6
2022-08-19T10:05:36.421Z,24.3
2022-08-19T10:25:43.589Z,23.9
2022-08-19T10:45:52.487Z,24.2
2022-08-19T10:55:45.008Z,24.9
2022-08-19T11:05:45.206Z,25
2022-08-19T11:15:45.761Z,25.3
2022-08-19T11:25:45.951Z,25.1
2022-08-19T11:35:46.666Z,25.2
2022-08-19T11:45:47.074Z,25.7
2022-08-19T11:55:47.288Z,25.1
2022-08-19T12:05:47.312Z,25.7
2022-08-19T12:15:47.539Z,25.8
2022-08-19T12:35:49.279Z,26
2022-08-19T12:45:49.950Z,26.3
2022-08-19T12:55:50.643Z,25.9
2022-08-19T13:05:51.630Z,26.1
2022-08-19T13:15:52.623Z,26.5
2022-08-19T13:35:53.980Z,27
2022-08-19T13:45:54.047Z,27
2022-08-19T13:55:54.563Z,26.8
2022-08-19T14:05:55.010Z,26.9
2022-08-19T14:15:55.910Z,26.8
2022-08-19T14:25:56.095Z,27.5
2022-08-19T14:35:59.589Z,26.7
2022-08-19T14:45:57.139Z,26.7
2022-08-19T14:55:57.784Z,26.2
2022-08-19T15:05:58.447Z,26
2022-08-19T15:25:59.378Z,26.6
2022-08-19T15:35:59.889Z,26.7
2022-08-19T15:56:00.669Z,26.1
2022-08-19T16:06:01.574Z,26.5
2022-08-19T16:16:01.949Z,26.1
2022-08-19T16:26:02.575Z,26.2
2022-08-19T16:36:07.195Z,26.3
2022-08-19T16:46:03.708Z,26.3
2022-08-19T16:56:04.496Z,26
2022-08-19T17:06:04.967Z,26.1
2022-08-19T17:16:06.007Z,25.9
2022-08-19T17:36:06.603Z,25.3
2022-08-19T17:46:06.875Z,25.5
2022-08-19T17:56:07.168Z,25.2
2022-08-19T18:16:08.597Z,25.1
2022-08-19T18:26:08.812Z,24.9
2022-08-19T18:36:09.171Z,24.5
2022-08-19T18:46:09.242Z,24.3
2022-08-19T18:56:09.774Z,24.1
2022-08-19T19:26:11.495Z,23.1
2022-08-19T19:36:11.650Z,22.7
2022-08-19T19:46:11.822Z,22.6
2022-08-19T20:06:12.814Z,22.2
2022-08-19T20:16:13.338Z,22
2022-08-19T20:26:32.076Z,21.9
2022-08-19T20:36:13.783Z,21.8
2022-08-19T20:46:14.332Z,21.8
2022-08-19T20:56:14.817Z,21.9
2022-08-19T21:06:15.654Z,21.8
2022-08-19T21:16:16.526Z,21.8
2022-08-19T21:26:16.853Z,21.8
2022-08-19T21:36:17.813Z,21.6
2022-08-19T21:46:18.758Z,21.6
2022-08-19T21:56:19.467Z,21.6
2022-08-19T22:06:19.624Z,21.5
2022-08-19T22:16:20.322Z,21.3
2022-08-19T22:36:21.648Z,21.3
2022-08-19T22:46:21.686Z,21.2
2022-08-19T22:56:22.169Z,21.1
2022-08-19T23:16:22.746Z,20.6
2022-08-19T23:36:23.846Z,20.4
2022-08-19T23:46:27.360Z,19.5
2022-08-19T23:56:24.544Z,19.4
